Time;durP1;ratioP1;P1;durP2;ratioP2;P2;SDS_P1;SDS_P2;PMS_P1;PMS_P2;Temp;Humidity;BMP_temperature;BMP_pressure;BME280_temperature;BME280_humidity;BME280_pressure;Samples;Min_cycle;Max_cycle;Signal;HPM_P1;HPM_P2
2021/12/16 00:09:47;;;;;;;44.72;17.63;;;2.00;99.90;;;2.05;100.00;99565.50;4984886;28;119361;-83
2021/12/16 00:32:19;;;;;;;52.58;17.08;;;2.10;99.90;;;2.08;100.00;99573.03;4984618;28;121480;-83
2021/12/16 00:34:50;;;;;;;47.05;17.40;;;2.10;99.90;;;2.01;100.00;99569.75;4951542;28;129168;-83
2021/12/16 00:37:20;;;;;;;47.53;17.10;;;2.10;99.90;;;2.09;100.00;99577.34;4951960;28;129145;-83
2021/12/16 00:39:49;;;;;;;42.38;17.15;;;2.10;99.90;;;2.12;100.00;99584.84;5000289;28;118026;-83
2021/12/16 00:42:31;;;;;;;38.67;14.93;;;2.10;99.90;;;2.21;100.00;99579.03;4950784;28;119736;-83
2021/12/16 00:45:22;;;;;;;35.65;15.73;;;2.20;99.90;;;2.26;100.00;99577.22;4967402;28;129647;-83
2021/12/16 00:47:58;;;;;;;38.97;16.80;;;2.20;99.90;;;2.26;100.00;99573.72;4966790;28;129707;-84
2021/12/16 00:56:15;;;;;;;36.58;14.00;;;2.30;99.90;;;2.47;100.00;99545.25;4952281;28;129402;-81
2021/12/16 00:59:10;;;;;;;36.70;14.68;;;2.30;99.90;;;2.53;100.00;99554.13;4973362;28;130074;-80
2021/12/16 01:01:48;;;;;;;38.60;15.15;;;2.40;99.90;;;2.56;100.00;99559.78;4967034;28;119470;-81
2021/12/16 01:04:56;;;;;;;35.35;14.13;;;2.40;99.90;;;2.63;100.00;99548.84;4951531;28;118618;-82
2021/12/16 01:08:09;;;;;;;34.20;14.25;;;2.50;99.90;;;2.58;100.00;99551.47;4995966;28;130541;-82
2021/12/16 01:34:16;;;;;;;26.00;11.45;;;2.70;99.90;;;2.76;100.00;99510.88;4952210;28;129855;-81
2021/12/16 01:37:12;;;;;;;29.88;12.60;;;2.70;99.90;;;2.79;100.00;99505.00;4949865;28;119451;-82
2021/12/16 01:40:05;;;;;;;29.30;13.07;;;2.70;99.90;;;2.70;100.00;99507.34;4962962;28;119464;-82
2021/12/16 01:51:17;;;;;;;31.13;12.43;;;2.80;99.90;;;2.96;100.00;99507.50;4913060;28;119079;-81
2021/12/16 01:54:26;;;;;;;29.45;12.82;;;2.80;99.90;;;3.01;100.00;99504.03;4897797;28;130079;-82
2021/12/16 01:56:57;;;;;;;28.83;13.27;;;2.80;99.90;;;3.10;100.00;99505.16;4961203;28;129703;-81
2021/12/16 01:59:34;;;;;;;25.80;12.20;;;2.90;99.90;;;3.05;100.00;99497.88;4987270;28;117783;-82
2021/12/16 02:02:14;;;;;;;25.00;12.00;;;2.90;99.90;;;3.04;100.00;99490.09;4952902;28;118367;-82
2021/12/16 02:05:07;;;;;;;23.48;11.07;;;2.90;99.90;;;3.08;100.00;99496.53;4982177;28;129956;-82
2021/12/16 02:07:51;;;;;;;24.50;12.15;;;3.00;99.90;;;3.07;100.00;99489.59;4984771;28;129537;-82
2021/12/16 02:10:30;;;;;;;24.13;11.48;;;3.00;99.90;;;3.10;100.00;99486.38;5001935;28;119127;-81
2021/12/16 02:13:16;;;;;;;25.45;11.82;;;3.00;99.90;;;3.11;100.00;99479.13;4937775;28;118505;-82
2021/12/16 02:27:28;;;;;;;;;;;3.10;99.90;;;3.33;100.00;99457.47;4954747;28;129018;-79
2021/12/16 02:30:32;;;;;;;;;;;3.20;99.90;;;3.28;100.00;99455.59;4981924;28;129399;-82
2021/12/16 02:32:56;;;;;;;18.27;10.05;;;3.20;99.90;;;3.40;100.00;99463.41;4979921;28;117917;-82
2021/12/16 02:35:31;;;;;;;21.58;11.10;;;3.20;99.90;;;3.43;100.00;99465.56;4981566;28;119319;-81
2021/12/16 02:38:04;;;;;;;23.05;10.60;;;3.30;99.90;;;3.43;100.00;99465.56;4955627;28;128795;-83
2021/12/16 02:40:37;;;;;;;21.10;11.70;;;3.30;99.90;;;3.37;100.00;99471.97;5005807;28;129871;-82
2021/12/16 02:43:22;;;;;;;17.83;10.38;;;3.30;99.90;;;3.49;100.00;99464.50;4988464;28;118786;-83
2021/12/16 02:48:40;;;;;;;23.58;12.00;;;3.30;99.90;;;3.40;100.00;99458.03;4979351;28;128867;-83
2021/12/16 02:51:18;;;;;;;24.42;11.38;;;3.30;99.90;;;3.43;100.00;99460.19;4963591;28;128443;-82
2021/12/16 02:53:53;;;;;;;21.17;11.25;;;3.30;99.90;;;3.46;100.00;99451.63;4992294;28;118411;-81
2021/12/16 02:56:23;;;;;;;21.17;11.25;;;3.30;99.90;;;3.38;100.00;99452.09;4994954;28;119454;-82
2021/12/16 02:58:55;;;;;;;25.00;12.27;;;3.30;99.90;;;3.48;100.00;99441.41;5018465;28;128740;-83
2021/12/16 03:01:30;;;;;;;26.60;12.68;;;3.40;99.90;;;3.55;100.00;99441.97;5001568;28;129529;-82
2021/12/16 03:04:01;;;;;;;23.25;11.68;;;3.40;99.90;;;3.47;100.00;99437.09;4991898;28;118959;-81
2021/12/16 03:06:31;;;;;;;24.73;12.15;;;3.40;99.90;;;3.48;100.00;99435.25;4985632;28;119502;-83
2021/12/16 03:09:05;;;;;;;25.52;12.57;;;3.40;99.90;;;3.47;100.00;99423.69;4988750;28;129186;-81
2021/12/16 03:11:43;;;;;;;22.63;11.35;;;3.50;99.90;;;3.46;100.00;99427.47;4983956;28;129703;-82
2021/12/16 03:14:25;;;;;;;20.75;11.43;;;3.50;99.90;;;3.51;100.00;99424.78;4978799;28;121919;-82
2021/12/16 03:17:08;;;;;;;21.95;11.30;;;3.50;99.90;;;3.53;100.00;99422.63;4960497;28;121209;-82
2021/12/16 03:19:51;;;;;;;30.38;12.82;;;3.60;99.90;;;3.54;100.00;99432.31;4972159;28;130078;-81
2021/12/16 03:22:39;;;;;;;24.77;12.30;;;3.60;99.90;;;3.65;100.00;99414.34;4970350;28;129698;-83
2021/12/16 03:25:18;;;;;;;;;;;3.60;99.90;;;3.55;100.00;99415.13;4954992;28;119152;-83
2021/12/16 03:36:49;;;;;;;23.40;11.52;;;3.70;99.90;;;3.70;100.00;99405.47;4969944;28;119163;-81
2021/12/16 03:39:19;;;;;;;24.10;11.65;;;3.80;99.90;;;3.72;100.00;99403.31;4984672;28;119147;-80
2021/12/16 03:41:50;;;;;;;24.38;11.25;;;3.80;99.90;;;3.78;100.00;99386.94;4951011;28;129358;-81
2021/12/16 03:44:27;;;;;;;25.65;12.23;;;3.80;99.90;;;3.77;100.00;99384.53;4952065;28;127909;-80
2021/12/16 03:46:55;;;;;;;25.13;12.32;;;3.80;99.90;;;3.86;100.00;99377.53;4985144;28;118961;-80
2021/12/16 03:49:27;;;;;;;28.95;12.27;;;3.80;99.90;;;3.70;100.00;99375.94;4967464;28;119275;-82
2021/12/16 03:52:06;;;;;;;24.15;11.80;;;3.80;99.90;;;3.77;100.00;99393.41;4983493;28;129643;-79
2021/12/16 03:54:45;;;;;;;26.55;12.57;;;3.80;99.90;;;3.79;100.00;99398.50;4951492;28;129190;-81
2021/12/16 03:57:15;;;;;;;22.60;12.20;;;3.80;99.90;;;3.82;100.00;99402.50;4968152;28;118274;-81
2021/12/16 03:59:48;;;;;;;26.83;12.77;;;3.80;99.90;;;3.80;100.00;99394.72;4951850;28;118774;-81
2021/12/16 04:02:38;;;;;;;21.30;11.80;;;3.80;99.90;;;3.78;100.00;99402.25;4967746;28;130263;-82
2021/12/16 04:05:11;;;;;;;27.30;12.00;;;3.80;99.90;;;3.74;100.00;99398.47;4986579;28;129085;-83
2021/12/16 04:07:44;;;;;;;26.52;13.05;;;3.80;99.90;;;3.75;100.00;99381.31;4980086;28;121926;-81
2021/12/16 04:10:35;;;;;;;25.83;12.13;;;3.80;99.90;;;3.73;100.00;99378.91;4963637;28;121689;-81
2021/12/16 04:13:13;;;;;;;27.60;12.70;;;3.80;99.90;;;3.75;100.00;99375.94;4950691;28;128935;-81
2021/12/16 04:15:46;;;;;;;26.48;12.02;;;3.80;99.90;;;3.78;100.00;99360.09;4983965;28;130095;-82
2021/12/16 04:18:16;;;;;;;29.27;13.10;;;3.80;99.90;;;3.77;100.00;99368.41;5002145;28;118558;-84
2021/12/16 04:21:20;;;;;;;28.17;13.25;;;3.80;99.90;;;3.79;100.00;99371.66;4967884;28;118290;-84
2021/12/16 04:23:50;;;;;;;26.48;12.85;;;3.80;99.90;;;3.78;100.00;99375.41;5001483;28;129020;-83
2021/12/16 04:26:19;;;;;;;24.65;12.55;;;3.80;99.90;;;3.72;100.00;99371.13;4966073;28;129602;-83
2021/12/16 04:28:50;;;;;;;29.45;14.88;;;3.90;99.90;;;3.73;100.00;99367.38;4984183;28;118379;-83
2021/12/16 04:31:19;;;;;;;30.23;14.48;;;3.90;99.90;;;3.84;100.00;99362.78;4980802;28;119340;-82
2021/12/16 04:33:49;;;;;;;30.52;13.88;;;3.90;99.90;;;3.88;100.00;99364.66;4981752;28;129041;-82
2021/12/16 04:36:19;;;;;;;30.58;13.10;;;3.90;99.90;;;3.76;100.00;99358.78;4983428;28;129030;-81
2021/12/16 04:38:49;;;;;;;32.20;14.20;;;3.90;99.90;;;3.81;100.00;99364.13;4952610;28;119741;-82
2021/12/16 04:41:20;;;;;;;28.98;13.82;;;3.90;99.90;;;3.73;100.00;99357.44;4967132;28;118583;-83
2021/12/16 04:43:55;;;;;;;30.80;14.02;;;3.90;99.90;;;3.76;100.00;99354.19;4996495;28;129588;-83
2021/12/16 04:46:28;;;;;;;38.08;14.57;;;3.90;99.90;;;3.84;100.00;99352.84;4949742;28;129074;-81
2021/12/16 04:49:01;;;;;;;30.23;15.02;;;3.90;99.90;;;3.82;100.00;99344.28;4967401;28;119532;-81
2021/12/16 04:51:41;;;;;;;32.13;15.63;;;3.90;99.90;;;3.90;100.00;99350.97;4960417;28;119562;-83
2021/12/16 04:54:13;;;;;;;33.47;15.02;;;3.90;99.90;;;3.89;100.00;99339.41;4947636;28;129767;-79
2021/12/16 04:56:43;;;;;;;31.67;15.02;;;3.90;99.90;;;3.96;100.00;99339.94;4976016;28;129668;-79
2021/12/16 04:59:20;;;;;;;31.90;14.52;;;3.90;99.90;;;3.96;100.00;99339.16;4961921;28;121817;-82
2021/12/16 05:01:55;;;;;;;30.88;13.32;;;3.90;99.90;;;4.02;100.00;99327.31;4945733;28;121000;-81
2021/12/16 05:04:40;;;;;;;23.88;11.20;;;4.00;99.90;;;4.06;100.00;99319.53;4942924;28;128605;-81
2021/12/16 05:07:10;;;;;;;24.30;11.55;;;4.00;99.90;;;4.03;100.00;99322.75;4945559;28;128930;-80
2021/12/16 05:12:32;;;;;;;24.92;11.23;;;4.00;99.90;;;4.07;100.00;99316.56;4963376;28;118356;-81
2021/12/16 05:15:04;;;;;;;21.27;9.60;;;4.00;99.90;;;4.16;100.00;99322.19;4946300;28;129499;-81
2021/12/16 05:17:38;;;;;;;19.90;10.13;;;4.10;99.90;;;4.18;100.00;99325.41;4979917;28;130346;-82
2021/12/16 05:20:11;;;;;;;19.95;9.90;;;4.10;99.90;;;4.25;100.00;99320.53;4952180;28;118548;-82
2021/12/16 05:25:38;;;;;;;18.40;9.30;;;4.10;99.90;;;4.18;100.00;99314.66;4984902;28;129364;-83
2021/12/16 05:28:07;;;;;;;20.88;9.10;;;4.20;99.90;;;4.24;100.00;99328.84;4965444;28;130591;-79
2021/12/16 05:30:37;;;;;;;18.05;8.93;;;4.20;99.90;;;4.24;100.00;99323.50;4966910;28;119751;-79
2021/12/16 05:33:06;;;;;;;16.60;8.65;;;4.20;99.90;;;4.35;100.00;99316.19;4967131;28;118280;-78
2021/12/16 05:35:48;;;;;;;19.92;8.23;;;4.20;99.90;;;4.26;100.00;99326.72;4981703;28;129449;-79
2021/12/16 05:38:17;;;;;;;18.77;8.90;;;4.30;99.90;;;4.31;100.00;99319.44;4979630;28;130910;-79
2021/12/16 05:40:46;;;;;;;16.52;8.85;;;4.20;99.90;;;4.26;100.00;99321.34;4984652;28;119834;-79
2021/12/16 05:43:24;;;;;;;17.85;8.85;;;4.30;99.90;;;4.25;100.00;99315.16;4984249;28;120006;-80
2021/12/16 05:45:58;;;;;;;19.75;8.43;;;4.30;99.90;;;4.28;100.00;99317.28;4969632;28;129472;-79
2021/12/16 05:48:31;;;;;;;16.52;8.52;;;4.30;99.90;;;4.34;100.00;99311.91;4983987;28;130411;-79
2021/12/16 05:51:09;;;;;;;19.88;9.18;;;4.30;99.90;;;4.36;100.00;99312.44;4966393;28;122180;-79
2021/12/16 05:53:41;;;;;;;23.42;11.75;;;4.30;99.90;;;4.42;100.00;99319.41;4980270;28;121574;-79
2021/12/16 05:56:26;;;;;;;16.50;8.27;;;4.30;99.90;;;4.43;100.00;99304.91;4965680;28;129648;-80
2021/12/16 05:58:55;;;;;;;21.67;9.05;;;4.40;99.90;;;4.47;100.00;99316.69;4978896;28;129443;-79
2021/12/16 06:01:29;;;;;;;19.33;8.98;;;4.40;99.90;;;4.44;100.00;99306.50;4979126;28;119778;-82
2021/12/16 06:03:59;;;;;;;22.52;11.57;;;4.40;99.90;;;4.50;100.00;99308.06;4967700;28;118968;-83
2021/12/16 06:06:29;;;;;;;26.98;12.65;;;4.40;99.90;;;4.56;100.00;99304.28;4968556;28;129910;-83
2021/12/16 06:09:00;;;;;;;19.55;9.80;;;4.40;99.90;;;4.54;100.00;99317.22;4969268;28;130152;-83
2021/12/16 06:11:35;;;;;;;27.20;13.55;;;4.40;99.90;;;4.55;100.00;99316.13;4984162;28;119147;-82
2021/12/16 06:14:14;;;;;;;19.55;10.63;;;4.50;99.90;;;4.53;100.00;99309.41;4966184;28;118700;-81
2021/12/16 06:22:49;;;;;;;15.95;9.80;;;4.60;99.90;;;4.62;100.00;99313.94;4965752;28;119804;-79
2021/12/16 06:28:10;;;;;;;16.88;9.50;;;4.60;99.90;;;4.68;100.00;99318.22;4962069;28;129177;-80
2021/12/16 06:30:43;;;;;;;14.75;7.60;;;4.60;99.90;;;4.61;100.00;99316.91;4978413;28;129615;-80
2021/12/16 06:33:24;;;;;;;15.85;9.80;;;4.70;99.90;;;4.56;100.00;99309.66;4944034;28;119590;-80
2021/12/16 06:35:55;;;;;;;17.17;8.88;;;4.70;99.90;;;4.62;100.00;99316.63;4975741;28;119872;-81
2021/12/16 06:38:25;;;;;;;14.18;7.50;;;4.70;99.90;;;4.61;100.00;99317.72;4959907;28;130388;-81
2021/12/16 06:41:21;;;;;;;17.90;8.25;;;4.80;99.90;;;4.59;100.00;99314.47;4947297;28;130021;-82
2021/12/16 06:44:33;;;;;;;15.75;8.15;;;4.80;99.90;;;4.60;100.00;99316.09;4936840;28;121771;-81
2021/12/16 06:47:06;;;;;;;15.20;8.57;;;4.80;99.90;;;4.68;100.00;99312.84;4951837;28;121021;-82
2021/12/16 06:49:39;;;;;;;23.13;13.85;;;4.80;99.90;;;4.71;100.00;99321.44;5003153;28;128637;-81
2021/12/16 06:52:12;;;;;;;20.33;11.48;;;4.90;99.90;;;4.69;100.00;99313.66;4953774;28;129467;-81
2021/12/16 06:54:54;;;;;;;14.23;8.38;;;4.90;99.90;;;4.66;100.00;99319.59;4948326;28;120203;-82
2021/12/16 06:57:33;;;;;;;17.05;9.27;;;4.90;99.90;;;4.71;100.00;99310.69;4981754;28;118369;-81
2021/12/16 07:00:09;;;;;;;19.70;10.27;;;4.90;99.90;;;4.76;100.00;99319.50;4987542;28;129599;-81
2021/12/16 07:02:50;;;;;;;21.73;9.80;;;4.90;99.90;;;4.84;100.00;99310.06;4971201;28;129358;-82
2021/12/16 07:05:22;;;;;;;17.33;10.77;;;4.90;99.90;;;4.86;100.00;99308.72;4987957;28;119567;-81
2021/12/16 07:07:51;;;;;;;17.15;11.10;;;5.00;99.90;;;4.79;100.00;99302.81;4971631;28;117671;-81
2021/12/16 07:10:21;;;;;;;17.30;9.50;;;5.00;99.90;;;4.85;100.00;99311.69;4987610;28;129713;-83
2021/12/16 07:12:50;;;;;;;14.85;8.38;;;5.00;99.90;;;4.94;100.00;99304.63;4954015;28;128865;-80
2021/12/16 07:15:23;;;;;;;21.27;12.73;;;5.00;99.90;;;4.91;100.00;99304.38;4966180;28;119748;-81
2021/12/16 07:17:54;;;;;;;16.42;9.20;;;5.00;99.90;;;4.97;100.00;99303.25;4965529;28;118722;-82
2021/12/16 07:20:28;;;;;;;17.23;10.00;;;5.00;99.90;;;4.91;100.00;99299.81;4967329;28;129817;-81
2021/12/16 07:22:58;;;;;;;15.90;8.27;;;5.00;99.90;;;5.00;100.00;99303.53;4964699;28;129653;-80
2021/12/16 07:25:27;;;;;;;19.63;12.45;;;5.00;99.90;;;5.08;100.00;99293.22;4968435;28;119360;-80
2021/12/16 07:27:57;;;;;;;17.10;10.82;;;5.00;99.90;;;5.03;100.00;99297.59;4966443;28;119272;-81
2021/12/16 07:30:27;;;;;;;14.07;8.48;;;5.00;99.90;;;4.95;100.00;99311.59;4966210;28;129798;-83
2021/12/16 07:32:56;;;;;;;18.15;10.55;;;5.10;99.90;;;5.13;100.00;99301.28;4966419;28;130227;-81
2021/12/16 07:35:28;;;;;;;17.73;11.95;;;5.20;99.90;;;5.20;100.00;99294.50;4966868;28;121535;-81
2021/12/16 07:37:58;;;;;;;48.17;25.25;;;5.20;99.90;;;5.33;100.00;99300.31;4951662;28;120935;-81
2021/12/16 07:40:31;;;;;;;14.70;7.55;;;5.20;99.90;;;5.32;100.00;99299.50;4967861;28;129941;-81
2021/12/16 07:43:22;;;;;;;13.60;8.25;;;5.20;99.90;;;5.45;100.00;99291.88;4984408;28;129903;-82
2021/12/16 07:45:54;;;;;;;14.43;7.10;;;5.30;99.90;;;5.49;100.00;99277.56;4967225;28;119304;-83
2021/12/16 07:48:30;;;;;;;14.15;7.78;;;5.30;99.90;;;5.54;100.00;99285.59;4966940;28;119739;-84
2021/12/16 07:51:04;;;;;;;13.32;7.40;;;5.30;99.90;;;5.58;100.00;99296.63;4966536;28;129757;-84
2021/12/16 07:53:32;;;;;;;14.07;7.85;;;5.30;99.90;;;5.52;100.00;99271.63;4982236;28;129727;-84
2021/12/16 07:56:09;;;;;;;13.77;7.13;;;5.30;99.90;;;5.44;100.00;99276.81;4966647;28;120052;-85
2021/12/16 07:58:39;;;;;;;15.25;7.78;;;5.40;99.90;;;5.61;100.00;99277.22;4968942;28;118693;-84
2021/12/16 08:01:08;;;;;;;14.98;7.60;;;5.40;99.90;;;5.67;100.00;99292.22;4963646;28;129392;-83
2021/12/16 08:03:38;;;;;;;13.68;7.65;;;5.40;99.90;;;5.73;100.00;99291.09;4964287;28;130237;-84
2021/12/16 08:06:12;;;;;;;14.02;7.55;;;5.40;99.90;;;5.78;100.00;99284.03;4968628;28;119170;-84
2021/12/16 08:08:41;;;;;;;13.20;7.82;;;5.50;99.90;;;5.89;100.00;99274.75;4966181;28;119539;-84
2021/12/16 08:11:11;;;;;;;12.88;7.25;;;5.50;99.90;;;5.85;100.00;99274.53;4967988;28;128967;-86
2021/12/16 08:13:39;;;;;;;15.38;7.55;;;5.50;99.90;;;5.86;100.00;99275.31;4965905;28;129623;-86
2021/12/16 08:16:32;;;;;;;12.13;7.15;;;5.50;99.90;;;5.80;100.00;99260.31;4969238;28;118526;-83
2021/12/16 08:19:03;;;;;;;17.08;7.45;;;5.60;99.90;;;5.98;100.00;99267.69;4985096;28;117339;-83
2021/12/16 08:21:35;;;;;;;12.52;6.72;;;5.60;99.90;;;5.92;100.00;99258.03;4965143;28;130187;-86
2021/12/16 08:24:09;;;;;;;12.38;7.18;;;5.60;99.90;;;5.89;100.00;99266.69;4965421;28;130099;-85
2021/12/16 08:26:38;;;;;;;12.02;6.93;;;5.60;99.90;;;5.75;100.00;99270.06;4965841;28;121177;-83
2021/12/16 08:29:08;;;;;;;12.88;6.85;;;5.60;99.90;;;5.74;100.00;99265.75;4951387;28;121838;-85
2021/12/16 08:31:36;;;;;;;11.77;5.97;;;5.60;99.90;;;5.86;100.00;99286.09;4964170;28;130325;-84
2021/12/16 08:34:06;;;;;;;11.52;6.38;;;5.60;99.90;;;5.86;100.00;99281.53;4950952;28;129331;-84
2021/12/16 08:36:37;;;;;;;10.50;6.20;;;5.60;99.90;;;5.84;100.00;99282.91;4951090;28;118581;-85
2021/12/16 08:39:09;;;;;;;10.60;6.03;;;5.60;99.90;;;5.82;100.00;99274.31;4965215;28;119499;-83
2021/12/16 08:41:51;;;;;;;11.02;6.10;;;5.60;99.90;;;5.85;100.00;99279.13;4964005;28;129755;-85
2021/12/16 08:44:19;;;;;;;10.32;5.93;;;5.70;99.90;;;5.81;100.00;99286.16;4965572;28;129743;-83
2021/12/16 08:46:52;;;;;;;11.13;6.38;;;5.70;99.90;;;5.88;100.00;99289.31;4967830;28;118950;-83
2021/12/16 08:49:22;;;;;;;9.80;5.55;;;5.70;99.90;;;5.91;100.00;99267.22;4985913;28;118195;-85
2021/12/16 08:51:57;;;;;;;9.25;5.30;;;5.70;99.90;;;5.88;100.00;99273.97;4967982;28;129246;-84
2021/12/16 08:54:26;;;;;;;9.98;5.30;;;5.70;99.90;;;5.84;100.00;99304.44;4971343;28;128772;-83
2021/12/16 08:56:55;;;;;;;10.07;5.93;;;5.60;99.90;;;5.67;100.00;99270.69;4986922;28;119030;-85
2021/12/16 08:59:25;;;;;;;10.85;6.07;;;5.60;99.90;;;5.69;100.00;99249.66;4966191;28;118856;-84
2021/12/16 09:01:58;;;;;;;11.45;5.78;;;5.60;99.90;;;5.71;100.00;99262.84;4982075;28;129461;-84
2021/12/16 09:04:28;;;;;;;10.27;5.32;;;5.60;99.90;;;5.64;100.00;99263.19;4966033;28;129387;-83
2021/12/16 09:07:16;;;;;;;8.95;5.45;;;5.60;99.90;;;5.64;100.00;99282.03;4964766;28;120164;-82
2021/12/16 09:09:47;;;;;;;9.05;4.82;;;5.60;99.90;;;5.74;100.00;99270.34;4964529;28;119391;-83
2021/12/16 09:12:50;;;;;;;7.57;4.97;;;5.60;99.90;;;5.73;100.00;99283.00;4964098;28;130167;-82
2021/12/16 09:15:22;;;;;;;9.57;5.50;;;5.60;99.90;;;5.73;100.00;99280.31;4965694;28;128360;-82
2021/12/16 09:17:52;;;;;;;11.05;5.88;;;5.50;99.90;;;5.68;100.00;99269.59;4964226;28;121092;-83
2021/12/16 09:20:22;;;;;;;7.95;4.75;;;5.50;99.90;;;5.67;100.00;99269.88;4979811;28;121746;-81
2021/12/16 09:22:53;;;;;;;8.07;4.57;;;5.50;99.90;;;5.67;100.00;99268.00;4963044;28;130323;-82
2021/12/16 09:25:22;;;;;;;9.13;4.95;;;5.50;99.90;;;5.70;100.00;99272.81;4965901;28;128803;-83
2021/12/16 09:27:52;;;;;;;6.75;4.55;;;5.50;99.90;;;5.65;100.00;99264.75;4965705;28;119227;-83
2021/12/16 09:30:25;;;;;;;7.57;4.72;;;5.50;99.90;;;5.61;100.00;99263.75;4963732;28;119184;-82
2021/12/16 09:32:59;;;;;;;9.00;4.65;;;5.50;99.90;;;5.60;100.00;99256.75;4965614;28;129762;-83
2021/12/16 09:35:32;;;;;;;7.63;4.30;;;5.50;99.90;;;5.73;100.00;99258.78;4963961;28;129604;-82
2021/12/16 09:38:06;;;;;;;7.65;4.15;;;5.50;99.90;;;5.70;100.00;99264.72;4965365;28;119188;-83
2021/12/16 09:40:44;;;;;;;6.70;3.75;;;5.50;99.90;;;5.62;100.00;99259.16;4964068;28;119402;-82
2021/12/16 09:43:13;;;;;;;9.23;4.63;;;5.50;99.90;;;5.58;100.00;99264.31;4963869;28;129753;-81
2021/12/16 09:45:42;;;;;;;7.03;4.03;;;5.50;99.90;;;5.69;100.00;99249.66;4965241;28;129888;-83
2021/12/16 09:48:48;;;;;;;6.57;3.70;;;5.50;99.90;;;5.63;100.00;99261.56;4964169;28;119579;-83
2021/12/16 09:51:22;;;;;;;7.55;5.13;;;5.40;99.90;;;5.73;100.00;99264.16;4949473;28;118252;-82
2021/12/16 09:53:57;;;;;;;6.65;3.92;;;5.50;99.90;;;5.69;100.00;99255.03;4963540;28;130435;-82
2021/12/16 09:56:29;;;;;;;7.45;4.05;;;5.40;99.90;;;5.73;100.00;99244.50;4982038;28;129442;-83
2021/12/16 09:59:00;;;;;;;7.18;3.97;;;5.50;99.90;;;5.75;100.00;99248.53;4963675;28;120332;-83
2021/12/16 10:01:30;;;;;;;7.15;3.92;;;5.50;99.90;;;5.75;100.00;99253.91;4964716;28;119419;-83
2021/12/16 10:04:07;;;;;;;6.18;3.15;;;5.50;99.90;;;5.80;100.00;99255.75;4963114;28;129529;-82
2021/12/16 10:06:37;;;;;;;;;;;5.50;99.90;;;5.73;100.00;99260.66;4978959;28;129868;-81
2021/12/16 10:09:12;;;;;;;8.60;4.22;;;5.50;99.90;;;5.73;100.00;99261.47;4963664;28;120771;-83
2021/12/16 10:11:46;;;;;;;9.30;4.25;;;5.50;99.90;;;5.74;100.00;99257.69;4963803;28;121939;-82
2021/12/16 10:14:32;;;;;;;6.95;3.40;;;5.50;99.90;;;5.69;100.00;99271.19;4982212;28;129762;-82
2021/12/16 10:19:49;;;;;;;8.55;3.28;;;5.50;99.90;;;5.70;100.00;99235.13;4967186;28;117948;-81
2021/12/16 10:22:23;;;;;;;6.03;3.17;;;5.40;99.90;;;5.69;100.00;99249.66;4966323;28;119365;-81
2021/12/16 10:24:58;;;;;;;5.43;2.90;;;5.50;99.90;;;5.68;100.00;99252.63;4966601;28;129267;-81
2021/12/16 10:27:30;;;;;;;5.82;2.55;;;5.50;99.90;;;5.71;100.00;99242.09;4966796;28;129190;-81
2021/12/16 10:30:05;;;;;;;4.63;2.70;;;5.50;99.90;;;5.81;100.00;99237.69;4963960;28;119414;-81
2021/12/16 10:32:40;;;;;;;3.70;2.30;;;5.50;99.90;;;5.65;100.00;99237.84;4965312;28;119346;-83
2021/12/16 10:35:15;;;;;;;4.97;2.75;;;5.50;99.90;;;5.72;100.00;99224.84;4978915;28;129565;-81
2021/12/16 10:37:50;;;;;;;4.82;2.10;;;5.50;99.90;;;5.64;100.00;99225.50;4979902;28;129821;-80
2021/12/16 10:40:37;;;;;;;5.82;3.03;;;5.50;99.90;;;5.58;100.00;99207.78;4966605;28;119048;-82
2021/12/16 10:43:10;;;;;;;6.43;3.97;;;5.50;99.90;;;5.63;100.00;99207.72;4966396;28;119102;-82
2021/12/16 10:45:45;;;;;;;3.90;2.15;;;5.50;99.90;;;5.56;100.00;99218.00;4968182;28;128822;-79
2021/12/16 10:48:23;;;;;;;5.93;2.40;;;5.60;99.90;;;5.58;100.00;99210.47;4968309;28;129605;-81
2021/12/16 10:51:10;;;;;;;3.97;1.90;;;5.60;99.90;;;5.58;100.00;99221.25;4966803;28;120520;-82
2021/12/16 10:54:06;;;;;;;3.57;2.40;;;5.50;99.90;;;5.65;100.00;99212.81;4967213;28;119822;-81
2021/12/16 10:56:49;;;;;;;4.50;2.38;;;5.60;99.90;;;5.65;100.00;99237.84;4968560;28;129892;-83
2021/12/16 10:59:23;;;;;;;3.72;2.05;;;5.60;99.90;;;5.58;100.00;99216.66;4968281;28;129059;-82
2021/12/16 11:02:11;;;;;;;4.93;1.75;;;5.60;99.90;;;5.58;100.00;99219.34;4950519;28;121194;-82
2021/12/16 11:04:46;;;;;;;5.15;2.20;;;5.60;99.90;;;5.60;100.00;99218.25;4965998;28;121846;-83
2021/12/16 11:07:21;;;;;;;3.10;1.60;;;5.60;99.90;;;5.65;100.00;99210.91;4964332;28;129921;-84
2021/12/16 11:09:56;;;;;;;4.43;1.90;;;5.70;99.90;;;5.74;100.00;99208.41;4967798;28;129131;-84
2021/12/16 11:12:49;;;;;;;3.55;1.77;;;5.70;99.90;;;5.84;100.00;99207.50;4952127;28;118688;-83
2021/12/16 11:15:32;;;;;;;2.78;1.55;;;5.70;99.90;;;5.85;100.00;99219.88;4985184;28;117855;-84
2021/12/16 11:18:07;;;;;;;4.70;2.20;;;5.70;99.90;;;5.91;100.00;99213.34;4965876;28;130245;-84
2021/12/16 11:20:40;;;;;;;9.07;4.25;;;5.80;99.90;;;5.75;100.00;99220.78;4965982;28;130863;-83
2021/12/16 11:23:16;;;;;;;4.90;2.15;;;5.70;99.90;;;5.76;100.00;99217.81;4963537;28;119697;-83
2021/12/16 11:25:54;;;;;;;8.57;3.63;;;5.70;99.90;;;5.74;100.00;99219.97;4948508;28;118130;-82
2021/12/16 11:28:31;;;;;;;4.30;2.20;;;5.80;99.90;;;5.79;100.00;99218.31;4964237;28;129578;-83
2021/12/16 11:31:02;;;;;;;3.85;2.22;;;5.70;99.90;;;5.76;100.00;99223.22;4965550;28;130021;-82
2021/12/16 11:33:53;;;;;;;4.57;2.42;;;5.70;99.90;;;5.68;100.00;99220.31;4966104;28;119635;-81
2021/12/16 11:36:27;;;;;;;4.10;1.88;;;5.70;99.90;;;5.62;100.00;99221.47;4966037;28;119388;-82
2021/12/16 11:38:59;;;;;;;4.13;2.30;;;5.70;99.90;;;5.61;100.00;99209.91;4967306;28;129804;-84
2021/12/16 11:41:32;;;;;;;4.25;2.53;;;5.80;99.90;;;5.63;100.00;99231.94;4983838;28;129406;-82
2021/12/16 11:44:15;;;;;;;3.65;2.50;;;5.80;99.90;;;5.55;100.00;99232.56;4966946;28;119489;-82
2021/12/16 11:46:51;;;;;;;4.68;2.15;;;5.70;99.90;;;5.63;100.00;99233.84;4968039;28;118866;-82
2021/12/16 11:49:29;;;;;;;5.57;2.30;;;5.70;99.90;;;5.59;100.00;99247.06;4963640;28;130302;-84
2021/12/16 11:52:06;;;;;;;5.82;3.05;;;5.70;99.90;;;5.62;100.00;99238.41;4950956;28;128856;-81
2021/12/16 11:54:39;;;;;;;;;;;5.70;99.90;;;5.63;100.00;99250.78;4963569;28;122183;-78
2021/12/16 11:57:14;;;;;;;6.47;4.03;;;5.70;99.90;;;5.65;100.00;99243.22;4965659;28;121841;-80
2021/12/16 11:59:48;;;;;;;7.28;3.85;;;5.70;99.90;;;5.56;100.00;99234.16;4965099;28;130019;-79
2021/12/16 12:02:27;;;;;;;7.07;4.00;;;5.70;99.90;;;5.60;100.00;99240.59;4966732;28;128906;-79
2021/12/16 12:05:19;;;;;;;6.07;3.03;;;5.80;99.90;;;5.70;100.00;99245.88;4968160;28;119809;-81
2021/12/16 12:07:52;;;;;;;4.38;2.63;;;5.80;99.90;;;5.65;100.00;99232.47;4969045;28;119647;-80
2021/12/16 12:10:41;;;;;;;6.55;3.20;;;5.80;99.90;;;5.65;100.00;99232.47;4965461;28;129455;-80
2021/12/16 12:13:14;;;;;;;4.93;2.50;;;5.80;99.90;;;5.56;100.00;99234.16;4982700;28;128831;-79
2021/12/16 12:16:05;;;;;;;6.00;3.22;;;5.80;94.10;;;5.51;100.00;99220.75;4950528;28;119020;-80
2021/12/16 12:18:44;;;;;;;6.95;3.30;;;5.90;90.70;;;5.62;99.85;99233.03;4968228;28;119210;-80
2021/12/16 12:21:27;;;;;;;5.05;2.50;;;5.90;84.80;;;5.79;99.15;99231.78;4963818;28;129772;-78
2021/12/16 12:23:59;;;;;;;4.78;3.05;;;5.90;86.40;;;5.83;97.61;99235.50;4964722;28;130169;-79
2021/12/16 12:26:33;;;;;;;5.35;2.78;;;5.90;82.50;;;5.73;96.07;99229.16;4966803;28;119601;-79
2021/12/16 12:29:07;;;;;;;5.32;2.53;;;5.90;73.10;;;5.74;95.29;99230.75;4965300;28;119423;-77
2021/12/16 12:31:47;;;;;;;5.95;2.58;;;5.90;69.30;;;5.75;95.49;99236.94;4951353;28;104696;-79
2021/12/16 12:34:16;;;;;;;4.05;2.05;;;5.90;68.80;;;5.74;94.73;99233.44;4965527;28;129827;-78
2021/12/16 12:36:47;;;;;;;4.93;2.20;;;5.90;65.10;;;5.69;95.28;99221.94;4963923;28;119639;-78